Terminal Aerodrome Forecast
Issued by NWS St Louis, MO

Home | Current Version | Previous Version | Text Only | Print | Product List | Glossary On
Versions: 1 2 3 4 5 6 7 8 9 10 11 12 13
209
FTUS43 KLSX 040218 AAA
TAFCOU
TAF AMD
KCOU 040218Z 0402/0424 23006KT P6SM SCT120
     FM040800 25011KT P6SM BKN080
     FM041100 29012G18KT P6SM SCT100
     FM041400 34016G25KT P6SM SKC=

USA.gov is the U.S. government's official web portal to all federal, state and local government web resources and services.